Archival Weather

Snohomish County (Paine Fld)

Everett, Washington (KPAE)

Report from: Sunday, October 29, 2023 7:53 AM PDT
Current time: Monday, June 24, 2024 3:26 AM PDT

Current weather – Weather history – Daily summaries
Weather forecast

Temperature0.6°C (33.1°F)
Dew point-1.1°C (30.0°F)
Winds Calm
Visibility10 mi. (16.1 km)
Clouds Sky clear
Altimeter30.47 in.Hg (1032 mB)
Relative humidity88 %
Density altitude-2,318 ft. (-707 m)
Sea-level pressure103.2 kPa (1032 mB, 30.48 in.Hg)
Remarks Automated weather observing station with precipitation discriminator
Pressure falling more quickly
Flight conditions Visual Meteorological Conditions
Raw dataKPAE 291453Z 00000KT 10SM CLR 01/M01 A3047 RMK AO2 SLP323 T00061011 58006
An error has occurred. This application may no longer respond until reloaded. Reload 🗙